sensor_id;sensor_type;location;lat;lon;timestamp;P1;durP1;ratioP1;P2;durP2;ratioP2
60030;SDS011;45901;47.600;9.890;2023-05-21T00:00:26;7.10;;;5.60;;
60030;SDS011;45901;47.600;9.890;2023-05-21T00:02:54;7.97;;;5.70;;
60030;SDS011;45901;47.600;9.890;2023-05-21T00:05:23;9.47;;;6.47;;
60030;SDS011;45901;47.600;9.890;2023-05-21T00:07:50;11.47;;;6.47;;
60030;SDS011;45901;47.600;9.890;2023-05-21T00:10:19;8.70;;;6.43;;
60030;SDS011;45901;47.600;9.890;2023-05-21T00:12:48;9.10;;;7.07;;
60030;SDS011;45901;47.600;9.890;2023-05-21T00:15:15;10.53;;;8.03;;
60030;SDS011;45901;47.600;9.890;2023-05-21T00:17:42;10.17;;;7.43;;
60030;SDS011;45901;47.600;9.890;2023-05-21T00:20:10;9.90;;;7.57;;
60030;SDS011;45901;47.600;9.890;2023-05-21T00:22:38;8.80;;;7.43;;
60030;SDS011;45901;47.600;9.890;2023-05-21T00:25:06;11.17;;;8.43;;
60030;SDS011;45901;47.600;9.890;2023-05-21T00:27:34;8.37;;;7.40;;
60030;SDS011;45901;47.600;9.890;2023-05-21T00:30:04;12.17;;;8.83;;
60030;SDS011;45901;47.600;9.890;2023-05-21T00:32:33;9.77;;;8.17;;
60030;SDS011;45901;47.600;9.890;2023-05-21T00:35:00;11.13;;;7.73;;
60030;SDS011;45901;47.600;9.890;2023-05-21T00:37:28;10.10;;;8.47;;
60030;SDS011;45901;47.600;9.890;2023-05-21T00:39:58;12.23;;;8.10;;
60030;SDS011;45901;47.600;9.890;2023-05-21T00:42:26;9.17;;;7.27;;
60030;SDS011;45901;47.600;9.890;2023-05-21T00:44:54;7.97;;;5.93;;
60030;SDS011;45901;47.600;9.890;2023-05-21T00:47:23;11.53;;;6.17;;
60030;SDS011;45901;47.600;9.890;2023-05-21T00:49:53;9.30;;;7.10;;
60030;SDS011;45901;47.600;9.890;2023-05-21T00:52:21;13.63;;;7.77;;
60030;SDS011;45901;47.600;9.890;2023-05-21T00:54:51;13.97;;;9.00;;
60030;SDS011;45901;47.600;9.890;2023-05-21T00:57:19;11.63;;;8.50;;
60030;SDS011;45901;47.600;9.890;2023-05-21T00:59:51;8.57;;;6.77;;
60030;SDS011;45901;47.600;9.890;2023-05-21T01:02:19;9.23;;;6.70;;
60030;SDS011;45901;47.600;9.890;2023-05-21T01:04:52;8.53;;;6.70;;
60030;SDS011;45901;47.600;9.890;2023-05-21T01:07:20;20.47;;;7.20;;
60030;SDS011;45901;47.600;9.890;2023-05-21T01:09:47;18.60;;;6.90;;
60030;SDS011;45901;47.600;9.890;2023-05-21T01:12:15;8.33;;;6.87;;
60030;SDS011;45901;47.600;9.890;2023-05-21T01:14:44;9.67;;;7.00;;
60030;SDS011;45901;47.600;9.890;2023-05-21T01:17:12;8.43;;;6.70;;
60030;SDS011;45901;47.600;9.890;2023-05-21T01:19:41;11.40;;;6.73;;
60030;SDS011;45901;47.600;9.890;2023-05-21T01:22:11;9.90;;;5.87;;
60030;SDS011;45901;47.600;9.890;2023-05-21T01:24:43;8.97;;;6.60;;
60030;SDS011;45901;47.600;9.890;2023-05-21T01:27:11;7.90;;;6.27;;
60030;SDS011;45901;47.600;9.890;2023-05-21T01:29:39;13.23;;;8.00;;
60030;SDS011;45901;47.600;9.890;2023-05-21T01:32:07;22.93;;;8.57;;
60030;SDS011;45901;47.600;9.890;2023-05-21T01:34:43;21.00;;;6.63;;
60030;SDS011;45901;47.600;9.890;2023-05-21T01:37:23;9.20;;;6.87;;
60030;SDS011;45901;47.600;9.890;2023-05-21T01:39:59;8.17;;;6.07;;
60030;SDS011;45901;47.600;9.890;2023-05-21T01:42:34;9.17;;;6.77;;
60030;SDS011;45901;47.600;9.890;2023-05-21T01:45:04;10.87;;;6.30;;
60030;SDS011;45901;47.600;9.890;2023-05-21T01:47:33;8.13;;;6.53;;
60030;SDS011;45901;47.600;9.890;2023-05-21T01:50:03;23.97;;;11.17;;
60030;SDS011;45901;47.600;9.890;2023-05-21T01:52:32;16.17;;;8.60;;
60030;SDS011;45901;47.600;9.890;2023-05-21T01:55:01;15.20;;;8.13;;
60030;SDS011;45901;47.600;9.890;2023-05-21T01:57:28;11.53;;;7.87;;
60030;SDS011;45901;47.600;9.890;2023-05-21T01:59:56;13.87;;;9.90;;
60030;SDS011;45901;47.600;9.890;2023-05-21T02:02:24;11.77;;;9.30;;
60030;SDS011;45901;47.600;9.890;2023-05-21T02:04:51;10.70;;;8.07;;
60030;SDS011;45901;47.600;9.890;2023-05-21T02:07:19;12.50;;;7.97;;
60030;SDS011;45901;47.600;9.890;2023-05-21T02:09:46;9.07;;;7.30;;
60030;SDS011;45901;47.600;9.890;2023-05-21T02:12:15;9.60;;;7.20;;
60030;SDS011;45901;47.600;9.890;2023-05-21T02:14:43;12.13;;;7.07;;
60030;SDS011;45901;47.600;9.890;2023-05-21T02:17:13;9.47;;;6.97;;
60030;SDS011;45901;47.600;9.890;2023-05-21T02:19:41;8.37;;;6.90;;
60030;SDS011;45901;47.600;9.890;2023-05-21T02:22:09;11.43;;;8.57;;
60030;SDS011;45901;47.600;9.890;2023-05-21T02:24:36;11.70;;;8.63;;
60030;SDS011;45901;47.600;9.890;2023-05-21T02:27:04;9.83;;;7.97;;
60030;SDS011;45901;47.600;9.890;2023-05-21T02:29:33;10.07;;;6.40;;
60030;SDS011;45901;47.600;9.890;2023-05-21T02:32:00;13.53;;;7.53;;
60030;SDS011;45901;47.600;9.890;2023-05-21T02:34:28;12.50;;;8.37;;
60030;SDS011;45901;47.600;9.890;2023-05-21T02:36:56;14.63;;;10.00;;
60030;SDS011;45901;47.600;9.890;2023-05-21T02:39:24;16.43;;;11.33;;
60030;SDS011;45901;47.600;9.890;2023-05-21T02:41:51;14.70;;;10.63;;
60030;SDS011;45901;47.600;9.890;2023-05-21T02:44:18;14.03;;;10.60;;
60030;SDS011;45901;47.600;9.890;2023-05-21T02:46:49;20.77;;;12.20;;
60030;SDS011;45901;47.600;9.890;2023-05-21T02:49:17;13.80;;;9.87;;
60030;SDS011;45901;47.600;9.890;2023-05-21T02:51:44;14.03;;;9.60;;
60030;SDS011;45901;47.600;9.890;2023-05-21T02:54:12;14.73;;;9.90;;
60030;SDS011;45901;47.600;9.890;2023-05-21T02:56:40;14.33;;;9.80;;
60030;SDS011;45901;47.600;9.890;2023-05-21T02:59:07;14.60;;;10.17;;
60030;SDS011;45901;47.600;9.890;2023-05-21T03:01:35;13.60;;;9.90;;
60030;SDS011;45901;47.600;9.890;2023-05-21T03:04:06;13.83;;;10.43;;
60030;SDS011;45901;47.600;9.890;2023-05-21T03:06:33;14.90;;;10.33;;
60030;SDS011;45901;47.600;9.890;2023-05-21T03:09:01;16.20;;;9.97;;
60030;SDS011;45901;47.600;9.890;2023-05-21T03:11:30;13.83;;;9.13;;
60030;SDS011;45901;47.600;9.890;2023-05-21T03:13:57;12.50;;;9.70;;
60030;SDS011;45901;47.600;9.890;2023-05-21T03:16:25;13.93;;;9.67;;
60030;SDS011;45901;47.600;9.890;2023-05-21T03:18:52;13.40;;;9.87;;
60030;SDS011;45901;47.600;9.890;2023-05-21T03:21:21;14.10;;;9.73;;
60030;SDS011;45901;47.600;9.890;2023-05-21T03:23:49;14.30;;;10.33;;
60030;SDS011;45901;47.600;9.890;2023-05-21T03:26:17;14.67;;;9.97;;
60030;SDS011;45901;47.600;9.890;2023-05-21T03:28:46;13.77;;;8.90;;
60030;SDS011;45901;47.600;9.890;2023-05-21T03:31:13;10.27;;;7.90;;
60030;SDS011;45901;47.600;9.890;2023-05-21T03:33:40;10.83;;;8.20;;
60030;SDS011;45901;47.600;9.890;2023-05-21T03:36:08;14.53;;;10.30;;
60030;SDS011;45901;47.600;9.890;2023-05-21T03:38:36;14.97;;;11.27;;
60030;SDS011;45901;47.600;9.890;2023-05-21T03:41:04;13.40;;;10.87;;
60030;SDS011;45901;47.600;9.890;2023-05-21T03:43:33;13.87;;;10.20;;
60030;SDS011;45901;47.600;9.890;2023-05-21T03:46:01;15.63;;;11.37;;
60030;SDS011;45901;47.600;9.890;2023-05-21T03:48:28;11.60;;;9.37;;
60030;SDS011;45901;47.600;9.890;2023-05-21T03:50:55;10.73;;;8.73;;
60030;SDS011;45901;47.600;9.890;2023-05-21T03:53:23;10.87;;;7.97;;
60030;SDS011;45901;47.600;9.890;2023-05-21T03:55:52;11.03;;;8.47;;
60030;SDS011;45901;47.600;9.890;2023-05-21T03:58:20;12.13;;;8.57;;
60030;SDS011;45901;47.600;9.890;2023-05-21T04:00:48;10.53;;;8.40;;
60030;SDS011;45901;47.600;9.890;2023-05-21T04:03:15;12.93;;;8.50;;
60030;SDS011;45901;47.600;9.890;2023-05-21T04:05:43;11.20;;;7.93;;
60030;SDS011;45901;47.600;9.890;2023-05-21T04:08:11;11.53;;;7.77;;
60030;SDS011;45901;47.600;9.890;2023-05-21T04:10:38;10.07;;;8.67;;
60030;SDS011;45901;47.600;9.890;2023-05-21T04:13:07;13.60;;;9.10;;
60030;SDS011;45901;47.600;9.890;2023-05-21T04:15:34;11.20;;;8.73;;
60030;SDS011;45901;47.600;9.890;2023-05-21T04:18:02;10.53;;;7.20;;
60030;SDS011;45901;47.600;9.890;2023-05-21T04:20:31;11.37;;;7.40;;
60030;SDS011;45901;47.600;9.890;2023-05-21T04:22:58;8.93;;;7.23;;
60030;SDS011;45901;47.600;9.890;2023-05-21T04:25:27;8.40;;;7.17;;
60030;SDS011;45901;47.600;9.890;2023-05-21T04:27:54;9.53;;;6.70;;
60030;SDS011;45901;47.600;9.890;2023-05-21T04:30:23;9.23;;;8.00;;
60030;SDS011;45901;47.600;9.890;2023-05-21T04:32:50;9.77;;;7.70;;
60030;SDS011;45901;47.600;9.890;2023-05-21T04:35:18;12.37;;;8.77;;
60030;SDS011;45901;47.600;9.890;2023-05-21T04:37:47;13.53;;;8.60;;
60030;SDS011;45901;47.600;9.890;2023-05-21T04:40:16;11.67;;;8.27;;
60030;SDS011;45901;47.600;9.890;2023-05-21T04:42:48;15.20;;;8.50;;
60030;SDS011;45901;47.600;9.890;2023-05-21T04:45:16;13.00;;;8.63;;
60030;SDS011;45901;47.600;9.890;2023-05-21T04:47:45;12.77;;;9.50;;
60030;SDS011;45901;47.600;9.890;2023-05-21T04:50:12;9.80;;;8.30;;
60030;SDS011;45901;47.600;9.890;2023-05-21T04:52:40;9.87;;;7.97;;
60030;SDS011;45901;47.600;9.890;2023-05-21T04:55:09;12.37;;;8.23;;
60030;SDS011;45901;47.600;9.890;2023-05-21T04:57:37;11.50;;;8.07;;
60030;SDS011;45901;47.600;9.890;2023-05-21T05:00:05;9.83;;;8.03;;
60030;SDS011;45901;47.600;9.890;2023-05-21T05:02:34;13.97;;;7.13;;
60030;SDS011;45901;47.600;9.890;2023-05-21T05:05:03;10.77;;;8.60;;
60030;SDS011;45901;47.600;9.890;2023-05-21T05:07:31;10.03;;;7.83;;
60030;SDS011;45901;47.600;9.890;2023-05-21T05:09:58;10.13;;;7.87;;
60030;SDS011;45901;47.600;9.890;2023-05-21T05:12:26;12.10;;;8.83;;
60030;SDS011;45901;47.600;9.890;2023-05-21T05:14:53;9.40;;;7.20;;
60030;SDS011;45901;47.600;9.890;2023-05-21T05:17:21;8.03;;;7.13;;
60030;SDS011;45901;47.600;9.890;2023-05-21T05:19:49;10.60;;;7.47;;
60030;SDS011;45901;47.600;9.890;2023-05-21T05:22:18;9.80;;;7.20;;
60030;SDS011;45901;47.600;9.890;2023-05-21T05:24:46;8.80;;;6.50;;
60030;SDS011;45901;47.600;9.890;2023-05-21T05:27:13;8.63;;;7.10;;
60030;SDS011;45901;47.600;9.890;2023-05-21T05:29:42;9.63;;;8.23;;
60030;SDS011;45901;47.600;9.890;2023-05-21T05:32:10;11.83;;;7.87;;
60030;SDS011;45901;47.600;9.890;2023-05-21T05:34:37;11.37;;;7.53;;
60030;SDS011;45901;47.600;9.890;2023-05-21T05:37:06;10.87;;;6.40;;
60030;SDS011;45901;47.600;9.890;2023-05-21T05:39:35;7.37;;;5.43;;
60030;SDS011;45901;47.600;9.890;2023-05-21T05:42:03;8.03;;;4.97;;
60030;SDS011;45901;47.600;9.890;2023-05-21T05:44:31;6.97;;;5.73;;
60030;SDS011;45901;47.600;9.890;2023-05-21T05:46:58;6.23;;;5.00;;
60030;SDS011;45901;47.600;9.890;2023-05-21T05:49:25;7.17;;;4.97;;
60030;SDS011;45901;47.600;9.890;2023-05-21T05:51:53;7.83;;;4.30;;
60030;SDS011;45901;47.600;9.890;2023-05-21T05:54:20;6.10;;;4.20;;
60030;SDS011;45901;47.600;9.890;2023-05-21T05:56:49;5.90;;;4.23;;
60030;SDS011;45901;47.600;9.890;2023-05-21T05:59:17;4.87;;;3.87;;
60030;SDS011;45901;47.600;9.890;2023-05-21T06:01:44;6.03;;;4.23;;
60030;SDS011;45901;47.600;9.890;2023-05-21T06:04:12;4.03;;;3.57;;
60030;SDS011;45901;47.600;9.890;2023-05-21T06:06:39;5.80;;;4.20;;
60030;SDS011;45901;47.600;9.890;2023-05-21T06:09:06;5.30;;;4.20;;
60030;SDS011;45901;47.600;9.890;2023-05-21T06:11:34;6.17;;;4.13;;
60030;SDS011;45901;47.600;9.890;2023-05-21T06:14:03;5.47;;;4.20;;
60030;SDS011;45901;47.600;9.890;2023-05-21T06:16:30;4.90;;;4.10;;
60030;SDS011;45901;47.600;9.890;2023-05-21T06:18:58;4.90;;;4.20;;
60030;SDS011;45901;47.600;9.890;2023-05-21T06:21:25;5.00;;;3.97;;
60030;SDS011;45901;47.600;9.890;2023-05-21T06:23:53;10.13;;;4.47;;
60030;SDS011;45901;47.600;9.890;2023-05-21T06:26:20;5.20;;;3.93;;
60030;SDS011;45901;47.600;9.890;2023-05-21T06:28:47;5.80;;;3.60;;
60030;SDS011;45901;47.600;9.890;2023-05-21T06:31:16;7.53;;;5.33;;
60030;SDS011;45901;47.600;9.890;2023-05-21T06:33:46;9.10;;;7.00;;
60030;SDS011;45901;47.600;9.890;2023-05-21T06:36:14;12.60;;;7.77;;
60030;SDS011;45901;47.600;9.890;2023-05-21T06:38:42;13.37;;;8.77;;
60030;SDS011;45901;47.600;9.890;2023-05-21T06:41:09;11.13;;;7.67;;
60030;SDS011;45901;47.600;9.890;2023-05-21T06:43:37;12.30;;;8.13;;
60030;SDS011;45901;47.600;9.890;2023-05-21T06:46:04;7.07;;;5.73;;
60030;SDS011;45901;47.600;9.890;2023-05-21T06:48:33;5.90;;;4.63;;
60030;SDS011;45901;47.600;9.890;2023-05-21T06:51:00;6.10;;;4.67;;
60030;SDS011;45901;47.600;9.890;2023-05-21T06:53:28;6.57;;;4.43;;
60030;SDS011;45901;47.600;9.890;2023-05-21T06:55:55;7.57;;;5.40;;
60030;SDS011;45901;47.600;9.890;2023-05-21T06:58:23;6.90;;;4.93;;
60030;SDS011;45901;47.600;9.890;2023-05-21T07:00:55;12.20;;;5.30;;
60030;SDS011;45901;47.600;9.890;2023-05-21T07:03:22;9.60;;;5.50;;
60030;SDS011;45901;47.600;9.890;2023-05-21T07:05:51;10.20;;;5.47;;
60030;SDS011;45901;47.600;9.890;2023-05-21T07:08:19;6.43;;;4.47;;
60030;SDS011;45901;47.600;9.890;2023-05-21T07:10:47;6.73;;;5.07;;
60030;SDS011;45901;47.600;9.890;2023-05-21T07:13:15;6.10;;;5.00;;
60030;SDS011;45901;47.600;9.890;2023-05-21T07:15:42;9.80;;;7.00;;
60030;SDS011;45901;47.600;9.890;2023-05-21T07:18:09;8.63;;;6.50;;
60030;SDS011;45901;47.600;9.890;2023-05-21T07:20:37;17.13;;;9.13;;
60030;SDS011;45901;47.600;9.890;2023-05-21T07:23:06;11.67;;;6.87;;
60030;SDS011;45901;47.600;9.890;2023-05-21T07:25:33;8.43;;;6.90;;
60030;SDS011;45901;47.600;9.890;2023-05-21T07:28:01;8.97;;;6.03;;
60030;SDS011;45901;47.600;9.890;2023-05-21T07:30:28;10.07;;;8.27;;
60030;SDS011;45901;47.600;9.890;2023-05-21T07:32:55;10.23;;;7.03;;
60030;SDS011;45901;47.600;9.890;2023-05-21T07:35:23;13.20;;;8.60;;
60030;SDS011;45901;47.600;9.890;2023-05-21T07:37:50;12.20;;;8.63;;
60030;SDS011;45901;47.600;9.890;2023-05-21T07:40:19;11.57;;;9.47;;
60030;SDS011;45901;47.600;9.890;2023-05-21T07:42:46;13.60;;;9.67;;
60030;SDS011;45901;47.600;9.890;2023-05-21T07:45:14;15.50;;;10.43;;
60030;SDS011;45901;47.600;9.890;2023-05-21T07:47:43;12.83;;;9.53;;
60030;SDS011;45901;47.600;9.890;2023-05-21T07:50:12;11.13;;;8.80;;
60030;SDS011;45901;47.600;9.890;2023-05-21T07:52:40;11.63;;;8.93;;
60030;SDS011;45901;47.600;9.890;2023-05-21T07:55:07;13.63;;;9.57;;
60030;SDS011;45901;47.600;9.890;2023-05-21T07:57:37;12.43;;;9.10;;
60030;SDS011;45901;47.600;9.890;2023-05-21T08:00:04;10.57;;;8.27;;
60030;SDS011;45901;47.600;9.890;2023-05-21T08:02:35;12.03;;;8.33;;
60030;SDS011;45901;47.600;9.890;2023-05-21T08:05:03;10.87;;;7.87;;
60030;SDS011;45901;47.600;9.890;2023-05-21T08:07:31;13.47;;;9.13;;
60030;SDS011;45901;47.600;9.890;2023-05-21T08:09:58;12.10;;;8.87;;
60030;SDS011;45901;47.600;9.890;2023-05-21T08:12:26;13.03;;;8.23;;
60030;SDS011;45901;47.600;9.890;2023-05-21T08:14:55;11.47;;;8.67;;
60030;SDS011;45901;47.600;9.890;2023-05-21T08:17:23;11.73;;;8.30;;
60030;SDS011;45901;47.600;9.890;2023-05-21T08:19:52;11.20;;;8.57;;
60030;SDS011;45901;47.600;9.890;2023-05-21T08:22:20;12.83;;;8.20;;
60030;SDS011;45901;47.600;9.890;2023-05-21T08:24:47;10.97;;;8.13;;
60030;SDS011;45901;47.600;9.890;2023-05-21T08:27:14;10.03;;;7.67;;
60030;SDS011;45901;47.600;9.890;2023-05-21T08:29:42;10.17;;;8.30;;
60030;SDS011;45901;47.600;9.890;2023-05-21T08:32:11;10.77;;;7.87;;
60030;SDS011;45901;47.600;9.890;2023-05-21T08:34:38;9.03;;;7.97;;
60030;SDS011;45901;47.600;9.890;2023-05-21T08:37:06;9.57;;;8.03;;
60030;SDS011;45901;47.600;9.890;2023-05-21T08:39:33;9.90;;;7.43;;
60030;SDS011;45901;47.600;9.890;2023-05-21T08:42:02;7.93;;;6.40;;
60030;SDS011;45901;47.600;9.890;2023-05-21T08:44:36;9.43;;;6.43;;
60030;SDS011;45901;47.600;9.890;2023-05-21T08:47:12;9.50;;;7.10;;
60030;SDS011;45901;47.600;9.890;2023-05-21T08:49:44;9.87;;;6.37;;
60030;SDS011;45901;47.600;9.890;2023-05-21T08:52:13;13.77;;;6.70;;
60030;SDS011;45901;47.600;9.890;2023-05-21T08:54:41;9.50;;;6.67;;
60030;SDS011;45901;47.600;9.890;2023-05-21T08:57:10;11.63;;;7.10;;
60030;SDS011;45901;47.600;9.890;2023-05-21T08:59:39;8.43;;;6.80;;
60030;SDS011;45901;47.600;9.890;2023-05-21T09:02:08;8.90;;;6.33;;
60030;SDS011;45901;47.600;9.890;2023-05-21T09:04:39;8.17;;;6.37;;
60030;SDS011;45901;47.600;9.890;2023-05-21T09:07:12;8.10;;;6.27;;
60030;SDS011;45901;47.600;9.890;2023-05-21T09:09:43;8.43;;;7.00;;
60030;SDS011;45901;47.600;9.890;2023-05-21T09:12:17;9.20;;;6.90;;
60030;SDS011;45901;47.600;9.890;2023-05-21T09:14:44;8.97;;;6.83;;
60030;SDS011;45901;47.600;9.890;2023-05-21T09:17:16;9.67;;;7.00;;
60030;SDS011;45901;47.600;9.890;2023-05-21T09:22:33;8.17;;;5.90;;
60030;SDS011;45901;47.600;9.890;2023-05-21T09:25:03;8.27;;;5.97;;
60030;SDS011;45901;47.600;9.890;2023-05-21T09:27:33;9.10;;;6.30;;
60030;SDS011;45901;47.600;9.890;2023-05-21T09:30:00;7.50;;;5.97;;
60030;SDS011;45901;47.600;9.890;2023-05-21T09:32:29;11.03;;;6.73;;
60030;SDS011;45901;47.600;9.890;2023-05-21T09:34:57;9.50;;;6.73;;
60030;SDS011;45901;47.600;9.890;2023-05-21T09:37:36;14.00;;;6.73;;
60030;SDS011;45901;47.600;9.890;2023-05-21T09:40:08;11.57;;;6.90;;
60030;SDS011;45901;47.600;9.890;2023-05-21T09:42:37;7.73;;;6.00;;
60030;SDS011;45901;47.600;9.890;2023-05-21T09:45:06;10.77;;;6.53;;
60030;SDS011;45901;47.600;9.890;2023-05-21T09:47:39;8.43;;;6.97;;
60030;SDS011;45901;47.600;9.890;2023-05-21T09:50:09;10.23;;;6.63;;
60030;SDS011;45901;47.600;9.890;2023-05-21T09:52:37;10.30;;;7.00;;
60030;SDS011;45901;47.600;9.890;2023-05-21T09:55:05;11.13;;;7.23;;
60030;SDS011;45901;47.600;9.890;2023-05-21T09:57:39;9.70;;;7.20;;
60030;SDS011;45901;47.600;9.890;2023-05-21T10:00:08;8.97;;;6.73;;
60030;SDS011;45901;47.600;9.890;2023-05-21T10:02:44;8.07;;;6.97;;
60030;SDS011;45901;47.600;9.890;2023-05-21T10:05:13;10.13;;;6.97;;
60030;SDS011;45901;47.600;9.890;2023-05-21T10:07:43;7.23;;;6.37;;
60030;SDS011;45901;47.600;9.890;2023-05-21T10:10:15;6.87;;;5.87;;
60030;SDS011;45901;47.600;9.890;2023-05-21T10:12:45;7.33;;;5.67;;
60030;SDS011;45901;47.600;9.890;2023-05-21T10:15:21;7.13;;;5.47;;
60030;SDS011;45901;47.600;9.890;2023-05-21T10:17:51;6.60;;;5.33;;
60030;SDS011;45901;47.600;9.890;2023-05-21T10:20:20;8.93;;;5.50;;
60030;SDS011;45901;47.600;9.890;2023-05-21T10:22:48;6.03;;;4.73;;
60030;SDS011;45901;47.600;9.890;2023-05-21T10:25:16;6.97;;;4.67;;
60030;SDS011;45901;47.600;9.890;2023-05-21T10:27:44;7.73;;;4.87;;
60030;SDS011;45901;47.600;9.890;2023-05-21T10:30:12;7.97;;;5.53;;
60030;SDS011;45901;47.600;9.890;2023-05-21T10:32:40;13.03;;;4.43;;
60030;SDS011;45901;47.600;9.890;2023-05-21T10:35:09;6.60;;;4.30;;
60030;SDS011;45901;47.600;9.890;2023-05-21T10:37:41;6.07;;;3.57;;
60030;SDS011;45901;47.600;9.890;2023-05-21T10:40:09;7.27;;;4.10;;
60030;SDS011;45901;47.600;9.890;2023-05-21T10:42:48;6.03;;;3.97;;
60030;SDS011;45901;47.600;9.890;2023-05-21T10:49:13;5.43;;;3.83;;
60030;SDS011;45901;47.600;9.890;2023-05-21T10:52:16;6.77;;;3.83;;
60030;SDS011;45901;47.600;9.890;2023-05-21T10:54:59;4.33;;;3.50;;
60030;SDS011;45901;47.600;9.890;2023-05-21T10:57:44;6.23;;;3.60;;
60030;SDS011;45901;47.600;9.890;2023-05-21T11:00:30;5.03;;;4.17;;
60030;SDS011;45901;47.600;9.890;2023-05-21T11:02:57;8.20;;;3.73;;
60030;SDS011;45901;47.600;9.890;2023-05-21T11:05:38;9.13;;;3.90;;
60030;SDS011;45901;47.600;9.890;2023-05-21T11:08:19;5.23;;;3.50;;
60030;SDS011;45901;47.600;9.890;2023-05-21T11:10:52;6.47;;;3.67;;
60030;SDS011;45901;47.600;9.890;2023-05-21T11:13:22;6.47;;;3.73;;
60030;SDS011;45901;47.600;9.890;2023-05-21T11:16:05;6.67;;;3.97;;
60030;SDS011;45901;47.600;9.890;2023-05-21T11:21:28;5.37;;;4.20;;
60030;SDS011;45901;47.600;9.890;2023-05-21T11:24:01;5.97;;;3.77;;
60030;SDS011;45901;47.600;9.890;2023-05-21T11:29:35;4.17;;;3.40;;
60030;SDS011;45901;47.600;9.890;2023-05-21T11:32:12;5.07;;;3.47;;
60030;SDS011;45901;47.600;9.890;2023-05-21T11:34:42;6.43;;;3.57;;
60030;SDS011;45901;47.600;9.890;2023-05-21T11:40:16;5.60;;;4.07;;
60030;SDS011;45901;47.600;9.890;2023-05-21T11:42:50;5.67;;;3.00;;
60030;SDS011;45901;47.600;9.890;2023-05-21T11:45:18;6.40;;;3.43;;
60030;SDS011;45901;47.600;9.890;2023-05-21T11:47:47;6.43;;;3.73;;
60030;SDS011;45901;47.600;9.890;2023-05-21T11:50:15;9.87;;;3.60;;
60030;SDS011;45901;47.600;9.890;2023-05-21T11:52:43;4.83;;;3.63;;
60030;SDS011;45901;47.600;9.890;2023-05-21T11:55:10;4.90;;;3.30;;
60030;SDS011;45901;47.600;9.890;2023-05-21T11:57:41;4.90;;;3.60;;
60030;SDS011;45901;47.600;9.890;2023-05-21T12:00:13;6.17;;;3.47;;
60030;SDS011;45901;47.600;9.890;2023-05-21T12:02:45;7.13;;;3.77;;
60030;SDS011;45901;47.600;9.890;2023-05-21T12:05:13;5.03;;;3.90;;
60030;SDS011;45901;47.600;9.890;2023-05-21T12:07:40;7.23;;;3.90;;
60030;SDS011;45901;47.600;9.890;2023-05-21T12:10:08;6.43;;;3.60;;
60030;SDS011;45901;47.600;9.890;2023-05-21T12:12:36;7.30;;;3.50;;
60030;SDS011;45901;47.600;9.890;2023-05-21T12:15:05;6.10;;;3.87;;
60030;SDS011;45901;47.600;9.890;2023-05-21T12:17:34;8.67;;;3.67;;
60030;SDS011;45901;47.600;9.890;2023-05-21T12:20:01;5.57;;;3.80;;
60030;SDS011;45901;47.600;9.890;2023-05-21T12:22:31;6.83;;;3.83;;
60030;SDS011;45901;47.600;9.890;2023-05-21T12:24:59;6.97;;;3.77;;
60030;SDS011;45901;47.600;9.890;2023-05-21T12:27:26;6.50;;;3.70;;
60030;SDS011;45901;47.600;9.890;2023-05-21T12:29:54;7.30;;;3.65;;
60030;SDS011;45901;47.600;9.890;2023-05-21T12:32:25;5.32;;;3.45;;
60030;SDS011;45901;47.600;9.890;2023-05-21T12:34:54;6.13;;;3.70;;
60030;SDS011;45901;47.600;9.890;2023-05-21T12:37:22;4.93;;;3.50;;
60030;SDS011;45901;47.600;9.890;2023-05-21T12:39:51;5.40;;;3.50;;
60030;SDS011;45901;47.600;9.890;2023-05-21T12:42:23;6.35;;;3.30;;
60030;SDS011;45901;47.600;9.890;2023-05-21T12:44:52;4.38;;;3.20;;
60030;SDS011;45901;47.600;9.890;2023-05-21T12:47:21;6.47;;;3.10;;
60030;SDS011;45901;47.600;9.890;2023-05-21T12:49:52;5.07;;;3.85;;
60030;SDS011;45901;47.600;9.890;2023-05-21T12:52:22;7.53;;;3.30;;
60030;SDS011;45901;47.600;9.890;2023-05-21T12:54:50;5.78;;;3.63;;
60030;SDS011;45901;47.600;9.890;2023-05-21T12:57:18;5.15;;;3.63;;
60030;SDS011;45901;47.600;9.890;2023-05-21T12:59:48;7.27;;;3.47;;
60030;SDS011;45901;47.600;9.890;2023-05-21T13:02:18;6.20;;;3.58;;
60030;SDS011;45901;47.600;9.890;2023-05-21T13:04:52;4.65;;;3.33;;
60030;SDS011;45901;47.600;9.890;2023-05-21T13:09:55;6.35;;;3.13;;
60030;SDS011;45901;47.600;9.890;2023-05-21T13:12:23;5.30;;;2.97;;
60030;SDS011;45901;47.600;9.890;2023-05-21T13:14:52;4.95;;;3.35;;
60030;SDS011;45901;47.600;9.890;2023-05-21T13:17:21;4.07;;;2.60;;
60030;SDS011;45901;47.600;9.890;2023-05-21T13:20:04;5.93;;;2.80;;
60030;SDS011;45901;47.600;9.890;2023-05-21T13:22:35;5.72;;;2.55;;
60030;SDS011;45901;47.600;9.890;2023-05-21T13:25:06;4.03;;;2.75;;
60030;SDS011;45901;47.600;9.890;2023-05-21T13:27:35;5.28;;;2.30;;
60030;SDS011;45901;47.600;9.890;2023-05-21T13:30:04;4.22;;;2.58;;
60030;SDS011;45901;47.600;9.890;2023-05-21T13:32:32;3.45;;;2.50;;
60030;SDS011;45901;47.600;9.890;2023-05-21T13:34:59;4.55;;;2.70;;
60030;SDS011;45901;47.600;9.890;2023-05-21T13:37:28;4.30;;;2.90;;
60030;SDS011;45901;47.600;9.890;2023-05-21T13:39:55;2.95;;;2.20;;
60030;SDS011;45901;47.600;9.890;2023-05-21T13:42:23;4.88;;;2.65;;
60030;SDS011;45901;47.600;9.890;2023-05-21T13:44:50;4.35;;;2.70;;
60030;SDS011;45901;47.600;9.890;2023-05-21T13:47:17;4.90;;;2.80;;
60030;SDS011;45901;47.600;9.890;2023-05-21T13:49:44;9.55;;;2.75;;
60030;SDS011;45901;47.600;9.890;2023-05-21T13:52:11;5.22;;;2.85;;
60030;SDS011;45901;47.600;9.890;2023-05-21T13:54:41;3.67;;;2.70;;
60030;SDS011;45901;47.600;9.890;2023-05-21T13:57:08;3.10;;;2.20;;
60030;SDS011;45901;47.600;9.890;2023-05-21T13:59:35;4.15;;;2.97;;
60030;SDS011;45901;47.600;9.890;2023-05-21T14:02:04;3.40;;;2.38;;
60030;SDS011;45901;47.600;9.890;2023-05-21T14:04:33;3.50;;;2.65;;
60030;SDS011;45901;47.600;9.890;2023-05-21T14:07:01;5.07;;;2.70;;
60030;SDS011;45901;47.600;9.890;2023-05-21T14:09:29;5.57;;;2.80;;
60030;SDS011;45901;47.600;9.890;2023-05-21T14:11:58;5.05;;;2.75;;
60030;SDS011;45901;47.600;9.890;2023-05-21T14:14:25;6.68;;;2.67;;
60030;SDS011;45901;47.600;9.890;2023-05-21T14:16:54;5.78;;;3.00;;
60030;SDS011;45901;47.600;9.890;2023-05-21T14:19:21;4.50;;;2.50;;
60030;SDS011;45901;47.600;9.890;2023-05-21T14:21:50;4.18;;;2.67;;
60030;SDS011;45901;47.600;9.890;2023-05-21T14:24:17;4.60;;;3.20;;
60030;SDS011;45901;47.600;9.890;2023-05-21T14:26:44;4.32;;;3.05;;
60030;SDS011;45901;47.600;9.890;2023-05-21T14:29:13;7.13;;;3.20;;
60030;SDS011;45901;47.600;9.890;2023-05-21T14:31:40;5.78;;;3.00;;
60030;SDS011;45901;47.600;9.890;2023-05-21T14:34:07;4.47;;;3.13;;
60030;SDS011;45901;47.600;9.890;2023-05-21T14:36:34;5.53;;;2.97;;
60030;SDS011;45901;47.600;9.890;2023-05-21T14:39:01;5.78;;;3.15;;
60030;SDS011;45901;47.600;9.890;2023-05-21T14:41:29;3.83;;;2.90;;
60030;SDS011;45901;47.600;9.890;2023-05-21T14:43:56;4.00;;;2.90;;
60030;SDS011;45901;47.600;9.890;2023-05-21T14:46:24;4.00;;;2.70;;
60030;SDS011;45901;47.600;9.890;2023-05-21T14:48:52;4.03;;;3.00;;
60030;SDS011;45901;47.600;9.890;2023-05-21T14:51:23;7.30;;;3.40;;
60030;SDS011;45901;47.600;9.890;2023-05-21T14:53:50;5.60;;;3.53;;
60030;SDS011;45901;47.600;9.890;2023-05-21T14:56:17;3.70;;;2.72;;
60030;SDS011;45901;47.600;9.890;2023-05-21T14:58:45;4.57;;;3.13;;
60030;SDS011;45901;47.600;9.890;2023-05-21T15:01:13;4.38;;;3.25;;
60030;SDS011;45901;47.600;9.890;2023-05-21T15:03:41;5.70;;;3.20;;
60030;SDS011;45901;47.600;9.890;2023-05-21T15:06:09;6.47;;;3.67;;
60030;SDS011;45901;47.600;9.890;2023-05-21T15:08:36;6.32;;;3.50;;
60030;SDS011;45901;47.600;9.890;2023-05-21T15:11:03;10.43;;;4.15;;